Lincoln Airport
KLNK : now visible

Aeroporto :











RITROVATECI SU...

 
LOGIN :

Iscrizione | Disclaimer

   EN    FR    IT 

 









Sommario :    VFR   VFR Marginale   IFR   IFR Intensivo   IFR Molto Intensivo
Visibilità : 
Base nubi : 
>= 8 km
>= 3000ft
5 / 8 km
1000 / 3000 ft
1500m / 5 km
500 / 1000 ft
800 / 1500m
200 / 500 ft
< 800m
< 200 ft
Simboli :   Temporali  Nebbia  Neve Forte  Precipitazioni Forti  Vento > 20 kt






- Altitudine del aeroporto : 1219 ft
- Codice IATA : LNK


KLNK - Lincoln

ULTIMO METAR :
  • 040338Z AUTO 01011G18KT 10SM OVC018 M02/M06 A3029 RMK AO2 T10171056

METARs OBSOLETI :
  • 040254Z 02015KT 10SM OVC020 M02/M06 A3029 RMK AO2 SLP270 T10171061 52008
  • 040154Z 01013KT 10SM OVC022 M01/M06 A3028 RMK AO2 SLP268 T10111056
  • 040054Z 01012KT 10SM OVC024 00/M06 A3027 RMK AO2 SLP265 T00001056

TAF KLNK
Valido dal 04 a 02 ore il 05 a 00 ore UTC


040136Z 0402/0424 36012KT P6SM OVC025
FM040400 01006KT P6SM BKN025
FM040900 VRB04KT P6SM SCT025
FM041100 VRB05KT P6SM SCT250
FM042000 14010KT P6SM FEW250



MetMap, La meteo Aeronautica in un colpo d'occhio ! - Copyright ORBIFLY Dicembre 2007 - Disclaimer

ORBIFLY MET'MAP TEAM :

Programmazione e sviluppo : Alexandra Zaïnal
Concezione : Baudouin d'Aumeries
Aiuto per la programmazione : Marc-Olivier Méhu
Supporto tecnico e logistico : Manuel Goepfert
Aiuto per la traduzione : Arnaldo La Scala

Contatto : metmap@orbifly.com




FONTI E CREDITI :

   NOAA       Earth
Advisory